createdAt,value
2023-01-19T04:48:00.778Z,98826.53
2023-01-19T04:51:04.151Z,98826.53
2023-01-19T04:54:09.011Z,98821.50
2023-01-19T04:57:11.852Z,98838.56
2023-01-19T05:00:14.795Z,98845.16
2023-01-19T05:03:17.678Z,98851.19
2023-01-19T05:06:20.230Z,98857.91
2023-01-19T05:09:22.913Z,98874.59
2023-01-19T05:12:25.350Z,98881.88
2023-01-19T05:15:28.014Z,98858.94
2023-01-19T05:18:35.910Z,98846.31
2023-01-19T05:21:39.000Z,98874.81
2023-01-19T05:24:41.425Z,98892.09
2023-01-19T05:27:44.736Z,98900.66
2023-01-19T05:30:49.029Z,98897.28
2023-01-19T05:33:56.230Z,98890.56
2023-01-19T05:36:59.027Z,98895.41
2023-01-19T05:40:02.061Z,98897.59
2023-01-19T05:43:05.273Z,98893.31
2023-01-19T05:46:08.300Z,98889.97
2023-01-19T05:49:12.890Z,98889.50
2023-01-19T05:52:15.542Z,98874.34
2023-01-19T05:55:17.883Z,98876.12
2023-01-19T05:58:21.110Z,98881.31
2023-01-19T06:01:23.604Z,98866.66
2023-01-19T06:04:26.847Z,98844.13
2023-01-19T06:07:29.387Z,98853.47
2023-01-19T06:10:32.967Z,98850.03
2023-01-19T06:13:35.417Z,98864.72
2023-01-19T06:16:38.210Z,98841.19
2023-01-19T06:19:41.920Z,98838.56
2023-01-19T06:22:44.735Z,98853.19
2023-01-19T06:25:49.154Z,98848.91
2023-01-19T06:28:52.282Z,98833.69
2023-01-19T06:31:55.029Z,98828.72
2023-01-19T06:34:58.096Z,98839.03
2023-01-19T06:38:00.419Z,98847.69
2023-01-19T06:41:03.329Z,98871.06
2023-01-19T06:44:06.133Z,98882.25
2023-01-19T06:47:15.208Z,98881.22
2023-01-19T06:50:18.543Z,98889.78
2023-01-19T06:53:22.362Z,98881.03
2023-01-19T06:56:25.488Z,98865.28
2023-01-19T06:59:28.364Z,98882.59
2023-01-19T07:02:30.902Z,98869.62
2023-01-19T07:05:35.799Z,98886.06
2023-01-19T07:08:38.662Z,98870.31
2023-01-19T07:11:41.571Z,98862.50
2023-01-19T07:14:44.093Z,98857.19
2023-01-19T07:17:47.431Z,98853.88
2023-01-19T07:20:49.909Z,98868.53
2023-01-19T07:23:52.925Z,98884.69
2023-01-19T07:26:55.650Z,98899.12
2023-01-19T07:29:58.383Z,98899.66
2023-01-19T07:33:02.738Z,98894.34
2023-01-19T07:36:06.262Z,98885.56
2023-01-19T07:39:08.646Z,98895.81
2023-01-19T07:42:12.492Z,98890.38
2023-01-19T07:45:17.042Z,98898.59
2023-01-19T07:48:19.795Z,98895.44
2023-01-19T07:51:22.334Z,98913.41
2023-01-19T07:54:25.481Z,98900.44
2023-01-19T07:57:28.505Z,98919.28
2023-01-19T08:00:31.510Z,98912.63
2023-01-19T08:03:34.377Z,98929.03
2023-01-19T08:06:39.217Z,98919.44
2023-01-19T08:09:41.967Z,98912.03
2023-01-19T08:12:44.528Z,98909.22
2023-01-19T08:15:54.641Z,98905.66
2023-01-19T08:18:57.293Z,98895.06
2023-01-19T08:22:00.187Z,98894.94
2023-01-19T08:25:02.614Z,98901.09
2023-01-19T08:28:06.760Z,98891.41
2023-01-19T08:31:19.668Z,98892.34
2023-01-19T08:34:24.598Z,98910.34
2023-01-19T08:37:27.712Z,98912.53
2023-01-19T08:40:33.829Z,98911.97
2023-01-19T08:43:37.950Z,98919.59
2023-01-19T08:46:41.157Z,98914.84
2023-01-19T08:49:44.079Z,98922.47
2023-01-19T08:52:46.914Z,98923.38
2023-01-19T08:55:50.629Z,98919.56
2023-01-19T08:59:08.258Z,98918.44
2023-01-19T09:02:12.091Z,98910.22
2023-01-19T09:05:15.298Z,98915.69
2023-01-19T09:08:18.145Z,98910.00
2023-01-19T09:11:20.998Z,98913.09
2023-01-19T09:14:23.684Z,98902.22
2023-01-19T09:17:26.819Z,98898.63
2023-01-19T09:20:31.106Z,98908.09
2023-01-19T09:23:34.367Z,98924.66
2023-01-19T09:26:37.724Z,98925.84
2023-01-19T09:29:40.441Z,98910.50
2023-01-19T09:32:43.048Z,98915.31
2023-01-19T09:35:47.488Z,98921.41
2023-01-19T09:38:50.806Z,98925.41
2023-01-19T09:42:07.228Z,98923.47
2023-01-19T09:45:38.622Z,98927.03
2023-01-19T09:48:57.752Z,98909.38
2023-01-19T09:52:00.626Z,98920.59
2023-01-19T09:55:03.629Z,98923.25
2023-01-19T09:58:13.739Z,98929.06
2023-01-19T10:02:01.670Z,98933.63
2023-01-19T10:05:23.072Z,98925.50
2023-01-19T10:08:32.326Z,98930.31
2023-01-19T10:12:26.632Z,98946.91
2023-01-19T10:15:56.813Z,98941.84
2023-01-19T10:19:12.999Z,98950.84
2023-01-19T10:22:28.447Z,98952.00
2023-01-19T10:25:33.296Z,98952.19
2023-01-19T10:28:37.847Z,98951.44
2023-01-19T10:31:44.755Z,98949.37
2023-01-19T10:34:49.204Z,98953.50
2023-01-19T10:38:02.759Z,98950.59
2023-01-19T10:41:11.741Z,98953.25
2023-01-19T10:44:24.120Z,98965.91
2023-01-19T10:47:34.301Z,98969.22
2023-01-19T10:50:40.945Z,98971.66
2023-01-19T10:53:57.557Z,98970.19
2023-01-19T10:57:07.410Z,98968.38
2023-01-19T11:00:40.516Z,98970.81
2023-01-19T11:03:43.604Z,98962.09
2023-01-19T11:06:45.968Z,98965.97
2023-01-19T11:09:53.751Z,98972.06
2023-01-19T11:13:13.516Z,98971.16
2023-01-19T11:16:26.785Z,98955.22
2023-01-19T11:19:32.272Z,98958.47
2023-01-19T11:22:34.980Z,98962.72
2023-01-19T11:25:37.676Z,98960.91
2023-01-19T11:28:46.030Z,98953.28
2023-01-19T11:31:49.366Z,98955.16
2023-01-19T11:34:52.234Z,98954.03
2023-01-19T11:38:27.284Z,98965.78
2023-01-19T11:41:36.350Z,98969.84
2023-01-19T11:45:01.114Z,98966.31
2023-01-19T11:48:07.285Z,98966.63
2023-01-19T11:51:16.193Z,98965.50
2023-01-19T11:54:25.627Z,98969.06
2023-01-19T11:57:28.234Z,98970.66
2023-01-19T12:00:36.944Z,98982.53
2023-01-19T12:03:45.183Z,98981.59
2023-01-19T12:06:56.645Z,98985.81
2023-01-19T12:10:17.848Z,98988.25
2023-01-19T12:13:23.383Z,98995.59
2023-01-19T12:16:33.038Z,98997.34
2023-01-19T12:19:50.545Z,99004.81
2023-01-19T12:23:19.399Z,99011.47
2023-01-19T12:26:49.330Z,99012.06
2023-01-19T12:29:54.605Z,99016.28
2023-01-19T12:33:22.211Z,99021.59
2023-01-19T12:36:36.639Z,99027.19
2023-01-19T12:39:48.175Z,99034.44
2023-01-19T12:43:03.896Z,99034.91
2023-01-19T12:46:30.992Z,99028.78
2023-01-19T12:49:49.711Z,99042.25
2023-01-19T12:52:58.702Z,99044.06
2023-01-19T12:56:08.658Z,99041.47
2023-01-19T12:59:25.351Z,99053.47
2023-01-19T13:02:27.990Z,99047.59
2023-01-19T13:05:39.535Z,99063.22
2023-01-19T13:09:00.069Z,99066.75
2023-01-19T13:12:32.256Z,99078.87
2023-01-19T13:15:36.033Z,99096.91
2023-01-19T13:18:41.424Z,99100.25
2023-01-19T13:21:49.509Z,99105.00
2023-01-19T13:25:09.924Z,99114.06
2023-01-19T13:28:16.067Z,99118.75
2023-01-19T13:31:19.794Z,99117.50
2023-01-19T13:34:26.012Z,99122.41
2023-01-19T13:37:37.798Z,99124.00
2023-01-19T13:40:40.972Z,99127.28
2023-01-19T13:43:43.913Z,99142.22
2023-01-19T13:46:48.222Z,99150.16
2023-01-19T13:49:56.584Z,99160.66
2023-01-19T13:53:00.157Z,99158.12
2023-01-19T13:56:27.727Z,99158.53
2023-01-19T13:59:30.387Z,99166.75
2023-01-19T14:02:33.469Z,99171.13
2023-01-19T14:05:41.671Z,99176.88
2023-01-19T14:08:44.231Z,99173.50
2023-01-19T14:12:05.198Z,99176.19
2023-01-19T14:15:14.000Z,99159.09
2023-01-19T14:18:16.581Z,99155.53
2023-01-19T14:21:18.987Z,99154.69
2023-01-19T14:24:23.915Z,99153.66
2023-01-19T14:27:26.426Z,99157.06
2023-01-19T14:30:29.162Z,99164.88
2023-01-19T14:33:39.985Z,99172.69
2023-01-19T14:36:42.632Z,99189.88
2023-01-19T14:39:48.145Z,99191.75
2023-01-19T14:42:57.447Z,99179.34
2023-01-19T14:45:59.857Z,99193.81
2023-01-19T14:49:05.748Z,99203.38
2023-01-19T14:52:27.783Z,99209.75
2023-01-19T14:55:38.022Z,99222.41
2023-01-19T14:58:41.107Z,99220.66
2023-01-19T15:01:47.074Z,99221.66
2023-01-19T15:04:53.879Z,99249.97
2023-01-19T15:07:56.617Z,99272.81
2023-01-19T15:11:09.174Z,99288.97
2023-01-19T15:14:14.536Z,99285.81
2023-01-19T15:17:25.370Z,99277.03
2023-01-19T15:20:28.829Z,99269.63
2023-01-19T15:23:32.604Z,99262.19
2023-01-19T15:26:36.697Z,99254.84
2023-01-19T15:29:42.066Z,99257.72
2023-01-19T15:32:45.516Z,99272.28
2023-01-19T15:35:48.947Z,99280.38
2023-01-19T15:38:51.620Z,99298.50
2023-01-19T15:41:54.322Z,99301.28
2023-01-19T15:44:57.017Z,99309.94
2023-01-19T15:48:04.941Z,99301.44
2023-01-19T15:51:15.506Z,99307.31
2023-01-19T15:54:19.052Z,99309.78
2023-01-19T15:57:22.218Z,99318.72
2023-01-19T16:00:25.112Z,99327.22
2023-01-19T16:03:27.905Z,99348.13
2023-01-19T16:06:32.108Z,99350.75
2023-01-19T16:09:40.345Z,99349.88
2023-01-19T16:12:47.889Z,99353.16
2023-01-19T16:15:50.673Z,99356.75
2023-01-19T16:18:53.238Z,99369.47
2023-01-19T16:21:55.927Z,99383.56
2023-01-19T16:24:58.776Z,99398.78
2023-01-19T16:28:01.471Z,99388.28
2023-01-19T16:31:04.771Z,99398.31
2023-01-19T16:34:08.807Z,99407.84
2023-01-19T16:37:11.759Z,99421.63
2023-01-19T16:40:14.971Z,99423.03
2023-01-19T16:43:18.567Z,99426.66
2023-01-19T16:46:27.280Z,99444.13
2023-01-19T16:49:30.667Z,99444.03
2023-01-19T16:52:34.009Z,99454.91
